createdAt,value
2023-04-05T00:00:52.592Z,15.98
2023-04-05T00:03:26.491Z,15.30
2023-04-05T00:06:02.477Z,16.52
2023-04-05T00:08:37.548Z,15.60
2023-04-05T00:11:10.925Z,16.12
2023-04-05T00:13:44.040Z,15.55
2023-04-05T00:16:18.717Z,16.05
2023-04-05T00:18:51.962Z,14.73
2023-04-05T00:21:26.265Z,16.15
2023-04-05T00:24:01.232Z,15.60
2023-04-05T00:26:34.726Z,15.70
2023-04-05T00:29:07.750Z,15.63
2023-04-05T00:31:41.434Z,15.30
2023-04-05T00:34:14.408Z,16.73
2023-04-05T00:36:48.259Z,15.85
2023-04-05T00:39:20.973Z,15.70
2023-04-05T00:41:53.887Z,16.60
2023-04-05T00:44:27.012Z,16.48
2023-04-05T00:47:00.824Z,15.85
2023-04-05T00:49:36.817Z,16.00
2023-04-05T00:52:09.894Z,16.45
2023-04-05T00:54:43.824Z,16.05
2023-04-05T00:57:17.460Z,16.85
2023-04-05T00:59:52.049Z,15.30
2023-04-05T01:02:32.592Z,15.65
2023-04-05T01:05:10.560Z,15.72
2023-04-05T01:07:54.195Z,15.30
2023-04-05T01:10:31.905Z,14.33
2023-04-05T01:13:06.130Z,15.40
2023-04-05T01:15:39.431Z,13.75
2023-04-05T01:18:12.593Z,13.58
2023-04-05T01:20:51.443Z,13.78
2023-04-05T01:23:44.265Z,13.08
2023-04-05T01:26:33.258Z,12.55
2023-04-05T01:29:37.840Z,13.13
2023-04-05T01:32:56.738Z,13.53
2023-04-05T01:36:09.797Z,12.35
2023-04-05T01:38:43.609Z,12.68
2023-04-05T01:43:52.552Z,12.90
2023-04-05T01:46:25.657Z,11.85
2023-04-05T01:48:58.504Z,12.33
2023-04-05T01:51:32.329Z,12.25
2023-04-05T01:54:06.391Z,12.65
2023-04-05T01:56:40.025Z,13.10
2023-04-05T01:59:12.896Z,11.00
2023-04-05T02:01:46.193Z,10.32
2023-04-05T02:04:21.126Z,10.32
2023-04-05T02:06:54.655Z,10.85
2023-04-05T02:09:27.783Z,10.50
2023-04-05T02:12:01.750Z,10.18
2023-04-05T02:14:36.208Z,9.70
2023-04-05T02:17:09.256Z,9.35
2023-04-05T02:19:42.661Z,8.30
2023-04-05T02:22:17.197Z,9.93
2023-04-05T02:24:50.044Z,9.60
2023-04-05T02:27:23.141Z,9.18
2023-04-05T02:29:57.994Z,9.68
2023-04-05T02:32:32.467Z,9.65
2023-04-05T02:35:09.039Z,9.93
2023-04-05T02:37:43.192Z,9.50
2023-04-05T02:40:16.980Z,9.08
2023-04-05T02:42:51.180Z,8.80
2023-04-05T02:45:23.965Z,9.73
2023-04-05T02:47:57.561Z,10.15
2023-04-05T02:50:31.510Z,9.73
2023-04-05T02:53:04.800Z,10.95
2023-04-05T02:55:37.644Z,11.35
2023-04-05T02:58:11.212Z,11.77
2023-04-05T03:00:49.939Z,10.65
2023-04-05T03:03:26.602Z,10.18
2023-04-05T03:06:10.987Z,19.60
2023-04-05T03:08:47.944Z,10.90
2023-04-05T03:11:22.956Z,13.22
2023-04-05T03:13:59.086Z,10.82
2023-04-05T03:16:42.702Z,10.08
2023-04-05T03:19:19.115Z,10.00
2023-04-05T03:21:54.450Z,8.08
2023-04-05T03:24:29.315Z,9.33
2023-04-05T03:27:06.418Z,10.45
2023-04-05T03:29:41.212Z,9.00
2023-04-05T03:32:17.538Z,7.80
2023-04-05T03:34:52.189Z,7.72
2023-04-05T03:37:26.103Z,8.05
2023-04-05T03:40:09.514Z,9.33
2023-04-05T03:42:44.743Z,8.55
2023-04-05T03:45:23.098Z,8.95
2023-04-05T03:47:53.876Z,9.45
2023-04-05T03:50:28.217Z,10.23
2023-04-05T03:53:01.872Z,10.65
2023-04-05T03:55:35.500Z,10.45
2023-04-05T03:58:09.309Z,10.95
2023-04-05T04:00:43.642Z,13.50
2023-04-05T04:03:18.656Z,9.35
2023-04-05T04:05:53.637Z,9.80
2023-04-05T04:08:27.343Z,8.43
2023-04-05T04:11:02.144Z,10.88
2023-04-05T04:13:37.234Z,9.50
2023-04-05T04:16:21.746Z,9.90
2023-04-05T04:19:08.372Z,8.63
2023-04-05T04:21:45.528Z,8.33
2023-04-05T04:24:21.126Z,8.03
2023-04-05T04:27:11.849Z,8.60
2023-04-05T04:29:49.384Z,8.03
2023-04-05T04:32:53.192Z,9.15
2023-04-05T04:35:30.296Z,8.60
2023-04-05T04:38:09.099Z,7.75
2023-04-05T04:40:48.049Z,7.22
2023-04-05T04:43:29.130Z,8.80
2023-04-05T04:46:08.009Z,6.83
2023-04-05T04:48:47.596Z,8.00
2023-04-05T04:51:22.357Z,6.75
2023-04-05T04:53:55.530Z,6.47
2023-04-05T04:56:29.153Z,8.15
2023-04-05T04:59:03.748Z,7.60
2023-04-05T05:01:38.845Z,7.12
2023-04-05T05:04:13.481Z,7.28
2023-04-05T05:06:48.378Z,6.35
2023-04-05T05:09:21.273Z,6.37
2023-04-05T05:12:00.606Z,5.90
2023-04-05T05:14:34.457Z,6.78
2023-04-05T05:17:08.984Z,6.78
2023-04-05T05:19:43.130Z,7.47
2023-04-05T05:22:16.594Z,6.10
2023-04-05T05:24:50.093Z,6.85
2023-04-05T05:27:23.211Z,7.30
2023-04-05T05:29:57.216Z,6.50
2023-04-05T05:32:30.067Z,7.00
2023-04-05T05:35:03.238Z,6.62
2023-04-05T05:37:37.814Z,7.25
2023-04-05T05:40:13.276Z,7.37
2023-04-05T05:42:47.937Z,8.28
2023-04-05T05:45:20.956Z,8.18
2023-04-05T05:47:53.828Z,9.43
2023-04-05T05:50:26.718Z,7.25
2023-04-05T05:53:01.792Z,7.40
2023-04-05T05:55:35.168Z,5.83
2023-04-05T05:58:08.304Z,6.45
2023-04-05T06:00:41.743Z,7.40
2023-04-05T06:05:58.039Z,7.50
2023-04-05T06:08:31.178Z,8.10
2023-04-05T06:11:04.492Z,8.80
2023-04-05T06:13:38.170Z,8.33
2023-04-05T06:16:11.797Z,9.45
2023-04-05T06:18:45.754Z,9.28
2023-04-05T06:21:18.702Z,7.50
2023-04-05T06:23:52.175Z,7.47
2023-04-05T06:26:28.155Z,6.55
2023-04-05T06:29:01.877Z,6.45
2023-04-05T06:31:37.026Z,6.28
2023-04-05T06:34:09.943Z,6.25
2023-04-05T06:36:43.515Z,6.70
2023-04-05T06:39:18.166Z,7.33
2023-04-05T06:41:51.676Z,6.97
2023-04-05T06:44:26.124Z,6.12
2023-04-05T06:46:59.594Z,6.75
2023-04-05T06:49:33.426Z,5.80
2023-04-05T06:52:07.536Z,6.28
2023-04-05T06:54:41.336Z,5.15
2023-04-05T06:57:15.608Z,6.25
2023-04-05T07:02:22.554Z,6.40
2023-04-05T07:04:57.040Z,6.67
2023-04-05T07:07:31.394Z,6.35
2023-04-05T07:10:07.535Z,5.37
2023-04-05T07:12:42.822Z,5.83
2023-04-05T07:15:16.680Z,8.63
2023-04-05T07:17:51.528Z,11.97
2023-04-05T07:20:24.844Z,8.93
2023-04-05T07:22:59.200Z,7.60
2023-04-05T07:25:33.567Z,7.10
2023-04-05T07:28:07.478Z,7.25
2023-04-05T07:30:43.426Z,6.95
2023-04-05T07:33:18.447Z,6.05
2023-04-05T07:35:57.081Z,6.35
2023-04-05T07:38:31.252Z,6.72
2023-04-05T07:41:04.685Z,5.70
2023-04-05T07:43:37.887Z,5.25
2023-04-05T07:46:10.842Z,5.42
2023-04-05T07:48:43.940Z,5.72
2023-04-05T07:51:17.082Z,5.62
2023-04-05T07:53:50.258Z,5.47
2023-04-05T07:56:24.439Z,5.72
2023-04-05T07:58:57.740Z,5.17
2023-04-05T08:01:31.592Z,6.20
2023-04-05T08:04:04.509Z,7.55
2023-04-05T08:06:37.910Z,6.30
2023-04-05T08:09:11.671Z,6.00
2023-04-05T08:11:45.140Z,6.20
2023-04-05T08:14:18.297Z,8.58
2023-04-05T08:16:52.167Z,7.35
2023-04-05T08:19:25.824Z,6.40
2023-04-05T08:21:58.639Z,6.65
2023-04-05T08:24:31.659Z,6.42
2023-04-05T08:27:05.068Z,6.27
2023-04-05T08:29:41.534Z,6.15
2023-04-05T08:32:14.872Z,5.90
2023-04-05T08:34:47.932Z,6.65
2023-04-05T08:37:21.369Z,7.62
2023-04-05T08:39:54.298Z,7.00
2023-04-05T08:42:38.163Z,6.20
2023-04-05T08:45:13.562Z,6.50
2023-04-05T08:47:48.368Z,6.70
2023-04-05T08:52:54.033Z,6.42
2023-04-05T08:55:27.664Z,5.37
2023-04-05T08:58:01.784Z,5.62
2023-04-05T09:00:35.623Z,5.87
2023-04-05T09:05:42.143Z,5.28
2023-04-05T09:08:15.757Z,5.60
2023-04-05T09:13:23.975Z,5.53
2023-04-05T09:15:57.151Z,5.80
2023-04-05T09:18:32.661Z,4.97
2023-04-05T09:21:09.735Z,4.55
2023-04-05T09:23:56.350Z,4.50
2023-04-05T09:26:32.492Z,4.35
2023-04-05T09:29:07.637Z,4.25
2023-04-05T09:31:41.954Z,4.42
2023-04-05T09:34:22.541Z,4.42
2023-04-05T09:36:56.180Z,4.85
2023-04-05T09:39:33.946Z,3.87
2023-04-05T09:42:19.594Z,4.80
2023-04-05T09:45:00.708Z,4.15
2023-04-05T09:47:36.318Z,4.17
2023-04-05T09:50:20.601Z,4.20
2023-04-05T09:52:53.536Z,4.03
2023-04-05T09:55:30.686Z,4.62
2023-04-05T09:58:04.465Z,4.58
2023-04-05T10:01:09.726Z,3.80
2023-04-05T10:03:33.514Z,4.05
2023-04-05T10:06:07.707Z,4.33
2023-04-05T10:08:42.066Z,3.67
2023-04-05T10:11:15.369Z,3.55
2023-04-05T10:13:49.469Z,3.83
2023-04-05T10:16:24.374Z,4.15
2023-04-05T10:18:58.180Z,3.77
2023-04-05T10:24:18.466Z,4.60
2023-04-05T10:27:07.198Z,4.37
2023-04-05T10:30:09.225Z,4.75
2023-04-05T10:32:54.621Z,4.33
2023-04-05T10:35:44.275Z,4.20
2023-04-05T10:38:29.166Z,4.72
2023-04-05T10:41:16.189Z,4.28
2023-04-05T10:43:51.639Z,4.20
2023-04-05T10:46:25.634Z,4.00
2023-04-05T10:49:12.376Z,3.90
2023-04-05T10:51:46.748Z,3.80
2023-04-05T10:54:20.871Z,3.80
2023-04-05T10:56:54.752Z,4.87
2023-04-05T10:59:28.890Z,4.45
2023-04-05T11:02:02.630Z,3.58
2023-04-05T11:04:37.680Z,3.80
2023-04-05T11:07:21.758Z,3.95
2023-04-05T11:10:02.310Z,3.30
2023-04-05T11:12:58.205Z,3.87
2023-04-05T11:15:33.604Z,4.83
2023-04-05T11:18:23.179Z,4.65
2023-04-05T11:21:08.710Z,4.10
2023-04-05T11:24:08.388Z,4.78
2023-04-05T11:26:54.758Z,4.45
2023-04-05T11:29:54.684Z,4.15
2023-04-05T11:32:44.364Z,4.50
2023-04-05T11:35:21.153Z,4.15
2023-04-05T11:38:11.099Z,4.08
2023-04-05T11:40:44.578Z,4.78
2023-04-05T11:43:17.947Z,4.20
2023-04-05T11:45:52.857Z,4.05
2023-04-05T11:48:26.239Z,4.58
2023-04-05T11:51:00.105Z,6.07
2023-04-05T11:53:33.198Z,4.60
2023-04-05T11:56:14.080Z,3.17
2023-04-05T11:58:47.947Z,3.98
2023-04-05T12:01:22.311Z,4.25
2023-04-05T12:06:31.757Z,4.28
2023-04-05T12:09:09.842Z,5.35
2023-04-05T12:11:45.726Z,4.80
2023-04-05T12:14:18.545Z,3.77
2023-04-05T12:16:52.597Z,4.40
2023-04-05T12:19:26.561Z,3.55
2023-04-05T12:21:59.901Z,4.28
2023-04-05T12:24:33.118Z,4.78
2023-04-05T12:27:06.457Z,4.33
2023-04-05T12:32:13.745Z,4.00
2023-04-05T12:34:49.640Z,3.83
2023-04-05T12:37:22.617Z,3.35
2023-04-05T12:39:57.149Z,3.12
2023-04-05T12:42:37.188Z,3.05
2023-04-05T12:45:13.500Z,3.65
2023-04-05T12:48:00.840Z,4.50
2023-04-05T12:50:34.409Z,3.12
2023-04-05T12:53:08.671Z,3.50
2023-04-05T12:55:47.793Z,3.02
2023-04-05T12:58:40.531Z,3.20
2023-04-05T13:01:13.889Z,3.52
2023-04-05T13:03:48.414Z,3.00
2023-04-05T13:06:22.296Z,3.58
2023-04-05T13:08:55.760Z,3.00
2023-04-05T13:11:29.326Z,4.03
2023-04-05T13:14:03.180Z,3.67
2023-04-05T13:16:36.126Z,2.80
2023-04-05T13:19:09.073Z,3.20
2023-04-05T13:21:43.082Z,3.42
2023-04-05T13:24:16.033Z,3.23
2023-04-05T13:26:48.880Z,2.80
2023-04-05T13:29:21.928Z,2.62
2023-04-05T13:31:54.867Z,5.28
2023-04-05T13:34:27.812Z,3.10
2023-04-05T13:37:00.670Z,3.90
2023-04-05T13:39:34.239Z,3.50
2023-04-05T13:42:07.885Z,5.23
2023-04-05T13:44:41.520Z,3.35
2023-04-05T13:47:16.455Z,3.47
2023-04-05T13:49:49.229Z,3.30
2023-04-05T13:52:23.000Z,3.10
2023-04-05T13:55:02.689Z,3.22
2023-04-05T13:57:32.578Z,2.80
2023-04-05T14:00:07.063Z,3.20
2023-04-05T14:02:49.259Z,4.72
2023-04-05T14:05:22.483Z,3.00
2023-04-05T14:07:55.212Z,4.50
2023-04-05T14:10:28.938Z,2.63
2023-04-05T14:13:02.470Z,3.20
2023-04-05T14:15:36.455Z,3.65
2023-04-05T14:18:10.072Z,2.65
2023-04-05T14:20:43.872Z,2.62
2023-04-05T14:23:17.050Z,3.20
2023-04-05T14:25:51.948Z,2.72
2023-04-05T14:28:26.519Z,2.77
2023-04-05T14:31:00.118Z,2.98
2023-04-05T14:33:34.544Z,3.00
2023-04-05T14:36:07.644Z,4.22
2023-04-05T14:38:42.009Z,5.45
2023-04-05T14:41:15.800Z,4.55
2023-04-05T14:43:48.737Z,3.83
2023-04-05T14:46:22.301Z,5.60
2023-04-05T14:48:55.673Z,5.45
2023-04-05T14:51:29.526Z,4.70
2023-04-05T14:54:02.544Z,4.67
2023-04-05T14:56:36.075Z,7.22
2023-04-05T14:59:09.516Z,14.40
2023-04-05T15:01:44.650Z,13.05
2023-04-05T15:04:20.737Z,12.18
2023-04-05T15:06:53.732Z,7.33
2023-04-05T15:09:27.153Z,5.75
2023-04-05T15:12:01.283Z,5.45
2023-04-05T15:14:34.462Z,5.75
2023-04-05T15:17:07.537Z,9.48
2023-04-05T15:19:42.562Z,16.55
2023-04-05T15:22:18.030Z,9.33
2023-04-05T15:24:51.582Z,6.12
2023-04-05T15:27:25.492Z,7.23
2023-04-05T15:29:59.529Z,8.28
2023-04-05T15:35:07.340Z,6.33
2023-04-05T15:37:41.098Z,5.90
2023-04-05T15:40:14.452Z,6.00
2023-04-05T15:42:47.935Z,5.77
2023-04-05T15:45:21.147Z,6.58
2023-04-05T15:47:54.622Z,6.13
2023-04-05T15:50:27.894Z,6.22
2023-04-05T15:53:01.591Z,5.80
2023-04-05T15:55:35.116Z,6.87
2023-04-05T15:58:08.391Z,6.30
2023-04-05T16:00:42.514Z,5.70
2023-04-05T16:03:16.248Z,6.25
2023-04-05T16:05:49.989Z,7.83
2023-04-05T16:08:23.871Z,5.95
2023-04-05T16:10:58.414Z,10.38
2023-04-05T16:13:32.105Z,6.40
2023-04-05T16:16:06.988Z,6.62
2023-04-05T16:18:40.536Z,9.35
2023-04-05T16:21:16.575Z,11.45
2023-04-05T16:23:50.724Z,9.18
2023-04-05T16:26:24.197Z,7.53
2023-04-05T16:31:32.360Z,6.67
2023-04-05T16:34:05.885Z,6.30
2023-04-05T16:36:39.847Z,5.90
2023-04-05T16:39:12.979Z,7.60
2023-04-05T16:41:47.150Z,9.28
2023-04-05T16:44:20.696Z,11.70
2023-04-05T16:46:54.742Z,8.78
2023-04-05T16:52:01.656Z,12.73
2023-04-05T16:54:35.192Z,16.70
2023-04-05T16:57:08.172Z,18.10
2023-04-05T16:59:42.436Z,20.85
2023-04-05T17:02:15.794Z,17.65
2023-04-05T17:07:22.929Z,14.43
2023-04-05T17:09:58.315Z,13.68
2023-04-05T17:12:31.462Z,13.95
2023-04-05T17:15:05.251Z,12.25
2023-04-05T17:17:38.755Z,11.30
2023-04-05T17:20:13.679Z,10.13
2023-04-05T17:22:46.611Z,10.20
2023-04-05T17:25:20.081Z,12.33
2023-04-05T17:27:53.797Z,8.70
2023-04-05T17:30:27.106Z,8.05
2023-04-05T17:33:01.251Z,8.70
2023-04-05T17:35:34.528Z,11.00
2023-04-05T17:38:08.416Z,8.53
2023-04-05T17:40:41.764Z,8.70
2023-04-05T17:43:14.951Z,6.92
2023-04-05T17:45:48.155Z,6.83
2023-04-05T17:48:21.316Z,7.53
2023-04-05T17:50:55.232Z,5.87
2023-04-05T17:53:28.489Z,6.70
2023-04-05T17:56:02.069Z,6.60
2023-04-05T17:58:35.917Z,7.35
2023-04-05T18:01:10.744Z,6.62
2023-04-05T18:03:44.697Z,5.80
2023-04-05T18:06:18.215Z,5.80
2023-04-05T18:08:52.186Z,5.97
2023-04-05T18:11:25.674Z,10.55
2023-04-05T18:13:58.738Z,9.23
2023-04-05T18:16:32.674Z,7.37
2023-04-05T18:19:06.302Z,6.08
2023-04-05T18:21:39.604Z,5.83
2023-04-05T18:24:16.621Z,5.28
2023-04-05T18:26:50.017Z,5.45
2023-04-05T18:29:25.831Z,5.53
2023-04-05T18:31:59.212Z,5.53
2023-04-05T18:34:32.546Z,6.25
2023-04-05T18:37:05.884Z,6.55
2023-04-05T18:39:38.914Z,8.68
2023-04-05T18:42:12.100Z,13.50
2023-04-05T18:44:46.006Z,13.88
2023-04-05T18:47:19.890Z,12.63
2023-04-05T18:52:27.803Z,11.43
2023-04-05T18:55:03.765Z,12.73
2023-04-05T18:57:38.283Z,17.35
2023-04-05T19:00:11.809Z,14.00
2023-04-05T19:02:46.303Z,10.55
2023-04-05T19:05:19.466Z,25.02
2023-04-05T19:07:53.179Z,20.23
2023-04-05T19:10:26.876Z,13.62
2023-04-05T19:13:00.125Z,11.20
2023-04-05T19:15:33.990Z,8.18
2023-04-05T19:18:07.048Z,9.88
2023-04-05T19:20:40.081Z,13.43
2023-04-05T19:23:13.154Z,10.20
2023-04-05T19:25:46.347Z,10.32
2023-04-05T19:28:20.137Z,10.50
2023-04-05T19:30:54.264Z,10.70
2023-04-05T19:33:28.191Z,13.08
2023-04-05T19:36:04.404Z,13.83
2023-04-05T19:38:37.733Z,14.55
2023-04-05T19:41:11.926Z,15.00
2023-04-05T19:43:45.263Z,15.23
2023-04-05T19:46:19.382Z,15.35
2023-04-05T19:48:54.328Z,14.93
2023-04-05T19:51:29.624Z,13.22
2023-04-05T19:54:05.017Z,11.93
2023-04-05T19:56:39.866Z,11.48
2023-04-05T19:59:34.075Z,11.07
2023-04-05T20:02:12.800Z,10.85
2023-04-05T20:04:48.810Z,13.22
2023-04-05T20:07:22.861Z,12.85
2023-04-05T20:09:56.658Z,12.90
2023-04-05T20:12:29.763Z,12.68
2023-04-05T20:15:03.400Z,14.65
2023-04-05T20:17:37.363Z,10.72
2023-04-05T20:20:12.045Z,11.15
2023-04-05T20:25:39.796Z,10.18
2023-04-05T20:28:38.926Z,8.28
2023-04-05T20:31:15.608Z,8.23
2023-04-05T20:33:52.907Z,8.75
2023-04-05T20:36:39.437Z,8.15
2023-04-05T20:39:12.542Z,9.33
2023-04-05T20:41:47.747Z,8.55
2023-04-05T20:44:21.637Z,7.58
2023-04-05T20:52:05.351Z,10.35
2023-04-05T20:54:38.418Z,10.30
2023-04-05T20:57:12.254Z,10.08
2023-04-05T20:59:45.558Z,9.68
2023-04-05T21:02:18.930Z,10.65
2023-04-05T21:07:25.100Z,8.50
2023-04-05T21:09:58.019Z,7.50
2023-04-05T21:12:31.239Z,7.72
2023-04-05T21:15:04.776Z,6.78
2023-04-05T21:17:38.685Z,6.70
2023-04-05T21:20:12.420Z,6.70
2023-04-05T21:22:45.938Z,6.65
2023-04-05T21:25:18.936Z,6.70
2023-04-05T21:27:52.062Z,6.17
2023-04-05T21:30:25.913Z,5.50
2023-04-05T21:32:59.345Z,5.78
2023-04-05T21:35:32.520Z,5.20
2023-04-05T21:38:06.989Z,5.62
2023-04-05T21:40:40.509Z,4.90
2023-04-05T21:43:14.748Z,4.92
2023-04-05T21:45:47.857Z,5.60
2023-04-05T21:48:21.184Z,5.67
2023-04-05T21:50:54.914Z,5.00
2023-04-05T21:53:28.054Z,5.50
2023-04-05T21:56:01.301Z,4.93
2023-04-05T21:58:35.320Z,4.75
2023-04-05T22:01:08.413Z,4.40
2023-04-05T22:03:42.134Z,5.05
2023-04-05T22:06:15.464Z,4.57
2023-04-05T22:08:50.375Z,4.65
2023-04-05T22:11:25.583Z,4.72
2023-04-05T22:13:58.760Z,5.40
2023-04-05T22:16:31.971Z,4.70
2023-04-05T22:19:05.420Z,5.47
2023-04-05T22:21:40.338Z,5.22
2023-04-05T22:24:14.615Z,5.60
2023-04-05T22:26:49.219Z,5.70
2023-04-05T22:29:22.671Z,6.30
2023-04-05T22:31:55.976Z,5.10
2023-04-05T22:34:29.512Z,5.42
2023-04-05T22:37:02.357Z,5.85
2023-04-05T22:39:35.954Z,4.65
2023-04-05T22:42:09.065Z,5.90
2023-04-05T22:47:15.446Z,4.55
2023-04-05T22:49:48.893Z,6.40
2023-04-05T22:52:22.064Z,6.25
2023-04-05T22:54:55.043Z,6.17
2023-04-05T22:57:28.293Z,6.55
2023-04-05T23:00:01.655Z,6.12
2023-04-05T23:02:35.468Z,5.53
2023-04-05T23:05:09.663Z,6.17
2023-04-05T23:07:42.736Z,5.60
2023-04-05T23:10:15.834Z,5.87
2023-04-05T23:12:50.756Z,5.28
2023-04-05T23:15:23.833Z,6.15
2023-04-05T23:17:57.639Z,5.78
2023-04-05T23:20:30.826Z,5.70
2023-04-05T23:23:03.896Z,5.42
2023-04-05T23:25:37.730Z,5.87
2023-04-05T23:28:10.759Z,5.10
2023-04-05T23:30:44.577Z,6.35
2023-04-05T23:33:19.049Z,6.10
2023-04-05T23:35:52.096Z,5.35
2023-04-05T23:38:25.037Z,6.55
2023-04-05T23:40:58.161Z,5.85
2023-04-05T23:43:31.110Z,6.85
2023-04-05T23:46:04.268Z,7.15
2023-04-05T23:51:10.256Z,8.08
2023-04-05T23:53:43.334Z,8.35
2023-04-05T23:56:17.127Z,10.43
2023-04-05T23:58:50.134Z,12.30
